sensor_id;sensor_type;location;lat;lon;timestamp;temperature;humidity
20366;DHT22;10341;49.894;8.822;2024-03-08T00:03:00;4.20;99.90
20366;DHT22;10341;49.894;8.822;2024-03-08T00:08:21;4.10;99.90
20366;DHT22;10341;49.894;8.822;2024-03-08T00:13:40;3.80;99.90
20366;DHT22;10341;49.894;8.822;2024-03-08T00:19:01;3.60;99.90
20366;DHT22;10341;49.894;8.822;2024-03-08T00:24:21;3.40;99.90
20366;DHT22;10341;49.894;8.822;2024-03-08T00:29:44;3.20;99.90
20366;DHT22;10341;49.894;8.822;2024-03-08T00:35:04;3.10;99.90
20366;DHT22;10341;49.894;8.822;2024-03-08T00:40:26;3.00;99.90
20366;DHT22;10341;49.894;8.822;2024-03-08T00:45:45;2.90;99.90
20366;DHT22;10341;49.894;8.822;2024-03-08T00:51:05;2.90;99.90
20366;DHT22;10341;49.894;8.822;2024-03-08T00:56:24;2.90;99.90
20366;DHT22;10341;49.894;8.822;2024-03-08T01:01:44;2.80;99.90
20366;DHT22;10341;49.894;8.822;2024-03-08T01:07:04;2.90;99.90
20366;DHT22;10341;49.894;8.822;2024-03-08T01:12:24;2.90;99.90
20366;DHT22;10341;49.894;8.822;2024-03-08T01:17:44;2.90;99.90
20366;DHT22;10341;49.894;8.822;2024-03-08T01:23:03;2.80;99.90
20366;DHT22;10341;49.894;8.822;2024-03-08T01:28:26;2.70;99.90
20366;DHT22;10341;49.894;8.822;2024-03-08T01:33:45;2.60;99.90
20366;DHT22;10341;49.894;8.822;2024-03-08T01:39:05;2.50;99.90
20366;DHT22;10341;49.894;8.822;2024-03-08T01:44:26;2.30;99.90
20366;DHT22;10341;49.894;8.822;2024-03-08T01:49:46;2.10;99.90
20366;DHT22;10341;49.894;8.822;2024-03-08T01:55:06;1.90;99.90
20366;DHT22;10341;49.894;8.822;2024-03-08T02:00:26;1.70;99.90
20366;DHT22;10341;49.894;8.822;2024-03-08T02:05:49;1.70;99.90
20366;DHT22;10341;49.894;8.822;2024-03-08T02:11:08;1.60;99.90
20366;DHT22;10341;49.894;8.822;2024-03-08T02:16:27;1.60;99.90
20366;DHT22;10341;49.894;8.822;2024-03-08T02:21:47;1.60;99.90
20366;DHT22;10341;49.894;8.822;2024-03-08T02:27:06;1.60;99.90
20366;DHT22;10341;49.894;8.822;2024-03-08T02:32:25;1.70;99.90
20366;DHT22;10341;49.894;8.822;2024-03-08T02:37:44;1.90;99.90
20366;DHT22;10341;49.894;8.822;2024-03-08T02:43:06;1.90;99.90
20366;DHT22;10341;49.894;8.822;2024-03-08T02:48:26;1.80;99.90
20366;DHT22;10341;49.894;8.822;2024-03-08T02:53:45;1.40;99.90
20366;DHT22;10341;49.894;8.822;2024-03-08T02:59:04;1.10;99.90
20366;DHT22;10341;49.894;8.822;2024-03-08T03:04:23;0.80;99.90
20366;DHT22;10341;49.894;8.822;2024-03-08T03:09:42;0.70;99.90
20366;DHT22;10341;49.894;8.822;2024-03-08T03:15:01;0.50;99.90
20366;DHT22;10341;49.894;8.822;2024-03-08T03:20:20;0.60;99.90
20366;DHT22;10341;49.894;8.822;2024-03-08T03:25:46;1.00;99.90
20366;DHT22;10341;49.894;8.822;2024-03-08T03:31:08;1.40;99.90
20366;DHT22;10341;49.894;8.822;2024-03-08T03:36:33;1.70;99.90
20366;DHT22;10341;49.894;8.822;2024-03-08T03:41:54;1.70;99.90
20366;DHT22;10341;49.894;8.822;2024-03-08T03:47:16;1.80;99.90
20366;DHT22;10341;49.894;8.822;2024-03-08T03:52:35;1.70;99.90
20366;DHT22;10341;49.894;8.822;2024-03-08T03:57:55;1.70;99.90
20366;DHT22;10341;49.894;8.822;2024-03-08T04:03:14;1.60;99.90
20366;DHT22;10341;49.894;8.822;2024-03-08T04:08:34;1.60;99.90
20366;DHT22;10341;49.894;8.822;2024-03-08T04:13:53;1.60;99.90
20366;DHT22;10341;49.894;8.822;2024-03-08T04:19:12;1.60;99.90
20366;DHT22;10341;49.894;8.822;2024-03-08T04:24:33;1.50;99.90
20366;DHT22;10341;49.894;8.822;2024-03-08T04:29:52;1.40;99.90
20366;DHT22;10341;49.894;8.822;2024-03-08T04:35:12;1.30;99.90
20366;DHT22;10341;49.894;8.822;2024-03-08T04:40:31;1.20;99.90
20366;DHT22;10341;49.894;8.822;2024-03-08T04:45:50;1.20;99.90
20366;DHT22;10341;49.894;8.822;2024-03-08T04:51:10;1.10;99.90
20366;DHT22;10341;49.894;8.822;2024-03-08T04:56:29;1.10;99.90
20366;DHT22;10341;49.894;8.822;2024-03-08T05:01:48;1.00;99.90
20366;DHT22;10341;49.894;8.822;2024-03-08T05:07:08;0.90;99.90
20366;DHT22;10341;49.894;8.822;2024-03-08T05:12:29;0.80;99.90
20366;DHT22;10341;49.894;8.822;2024-03-08T05:17:48;0.80;99.90
20366;DHT22;10341;49.894;8.822;2024-03-08T05:23:07;0.70;99.90
20366;DHT22;10341;49.894;8.822;2024-03-08T05:28:27;0.80;99.90
20366;DHT22;10341;49.894;8.822;2024-03-08T05:33:47;0.70;99.90
20366;DHT22;10341;49.894;8.822;2024-03-08T05:39:06;0.60;99.90
20366;DHT22;10341;49.894;8.822;2024-03-08T05:44:26;0.60;99.90
20366;DHT22;10341;49.894;8.822;2024-03-08T05:49:47;0.60;99.90
20366;DHT22;10341;49.894;8.822;2024-03-08T05:55:07;0.60;99.90
20366;DHT22;10341;49.894;8.822;2024-03-08T06:00:29;0.60;99.90
20366;DHT22;10341;49.894;8.822;2024-03-08T06:05:50;0.70;99.90
20366;DHT22;10341;49.894;8.822;2024-03-08T06:11:10;0.70;99.90
20366;DHT22;10341;49.894;8.822;2024-03-08T06:16:29;0.80;99.90
20366;DHT22;10341;49.894;8.822;2024-03-08T06:21:49;0.80;99.90
20366;DHT22;10341;49.894;8.822;2024-03-08T06:27:08;0.90;99.90
20366;DHT22;10341;49.894;8.822;2024-03-08T06:32:29;1.00;99.90
20366;DHT22;10341;49.894;8.822;2024-03-08T06:37:48;1.00;99.90
20366;DHT22;10341;49.894;8.822;2024-03-08T06:43:08;1.20;99.90
20366;DHT22;10341;49.894;8.822;2024-03-08T06:48:28;1.30;99.90
20366;DHT22;10341;49.894;8.822;2024-03-08T06:53:49;1.40;99.90
20366;DHT22;10341;49.894;8.822;2024-03-08T06:59:08;1.60;99.90
20366;DHT22;10341;49.894;8.822;2024-03-08T07:04:29;1.80;99.90
20366;DHT22;10341;49.894;8.822;2024-03-08T07:09:50;1.90;99.90
20366;DHT22;10341;49.894;8.822;2024-03-08T07:15:10;2.10;99.90
20366;DHT22;10341;49.894;8.822;2024-03-08T07:20:32;2.30;99.90
20366;DHT22;10341;49.894;8.822;2024-03-08T07:25:51;2.50;99.90
20366;DHT22;10341;49.894;8.822;2024-03-08T07:31:10;2.90;99.90
20366;DHT22;10341;49.894;8.822;2024-03-08T07:36:36;3.70;99.90
20366;DHT22;10341;49.894;8.822;2024-03-08T07:41:55;4.40;99.90
20366;DHT22;10341;49.894;8.822;2024-03-08T07:47:15;5.00;99.90
20366;DHT22;10341;49.894;8.822;2024-03-08T07:52:36;5.40;99.90
20366;DHT22;10341;49.894;8.822;2024-03-08T07:57:55;6.00;99.90
20366;DHT22;10341;49.894;8.822;2024-03-08T08:03:15;6.50;99.90
20366;DHT22;10341;49.894;8.822;2024-03-08T08:08:35;6.70;99.90
20366;DHT22;10341;49.894;8.822;2024-03-08T08:13:56;7.20;99.90
20366;DHT22;10341;49.894;8.822;2024-03-08T08:19:15;7.60;99.90
20366;DHT22;10341;49.894;8.822;2024-03-08T08:24:35;7.80;99.90
20366;DHT22;10341;49.894;8.822;2024-03-08T08:29:56;8.00;99.90
20366;DHT22;10341;49.894;8.822;2024-03-08T08:35:15;8.30;99.90
20366;DHT22;10341;49.894;8.822;2024-03-08T08:40:35;8.80;99.90
20366;DHT22;10341;49.894;8.822;2024-03-08T08:45:55;9.20;99.90
20366;DHT22;10341;49.894;8.822;2024-03-08T08:51:15;9.60;99.90
20366;DHT22;10341;49.894;8.822;2024-03-08T08:56:35;9.60;99.90
20366;DHT22;10341;49.894;8.822;2024-03-08T09:01:55;10.90;99.90
20366;DHT22;10341;49.894;8.822;2024-03-08T09:07:15;10.10;99.90
20366;DHT22;10341;49.894;8.822;2024-03-08T09:12:35;11.30;99.90
20366;DHT22;10341;49.894;8.822;2024-03-08T09:17:55;11.50;99.90
20366;DHT22;10341;49.894;8.822;2024-03-08T09:23:15;11.40;99.90
20366;DHT22;10341;49.894;8.822;2024-03-08T09:28:36;11.40;99.90
20366;DHT22;10341;49.894;8.822;2024-03-08T09:33:55;13.30;99.90
20366;DHT22;10341;49.894;8.822;2024-03-08T09:39:14;13.10;98.40
20366;DHT22;10341;49.894;8.822;2024-03-08T09:44:36;12.30;99.40
20366;DHT22;10341;49.894;8.822;2024-03-08T09:49:55;12.50;99.00
20366;DHT22;10341;49.894;8.822;2024-03-08T09:55:16;14.70;97.70
20366;DHT22;10341;49.894;8.822;2024-03-08T10:00:37;15.70;93.80
20366;DHT22;10341;49.894;8.822;2024-03-08T10:05:57;15.60;93.80
20366;DHT22;10341;49.894;8.822;2024-03-08T10:11:19;16.40;92.20
20366;DHT22;10341;49.894;8.822;2024-03-08T10:16:38;17.10;91.50
20366;DHT22;10341;49.894;8.822;2024-03-08T10:21:58;14.80;93.60
20366;DHT22;10341;49.894;8.822;2024-03-08T10:27:18;14.30;95.10
20366;DHT22;10341;49.894;8.822;2024-03-08T10:32:37;16.20;91.30
20366;DHT22;10341;49.894;8.822;2024-03-08T10:37:57;16.20;90.90
20366;DHT22;10341;49.894;8.822;2024-03-08T10:43:24;14.50;93.30
20366;DHT22;10341;49.894;8.822;2024-03-08T10:48:45;15.40;93.30
20366;DHT22;10341;49.894;8.822;2024-03-08T10:54:06;17.50;90.20
20366;DHT22;10341;49.894;8.822;2024-03-08T10:59:26;17.00;90.50
20366;DHT22;10341;49.894;8.822;2024-03-08T11:04:47;15.70;91.70
20366;DHT22;10341;49.894;8.822;2024-03-08T11:10:19;16.30;90.20
20366;DHT22;10341;49.894;8.822;2024-03-08T11:15:39;17.20;90.70
20366;DHT22;10341;49.894;8.822;2024-03-08T11:20:58;18.80;85.00
20366;DHT22;10341;49.894;8.822;2024-03-08T11:26:23;19.30;84.60
20366;DHT22;10341;49.894;8.822;2024-03-08T11:31:43;18.50;81.90
20366;DHT22;10341;49.894;8.822;2024-03-08T11:37:10;17.50;86.10
20366;DHT22;10341;49.894;8.822;2024-03-08T11:42:32;17.40;88.40
20366;DHT22;10341;49.894;8.822;2024-03-08T11:47:51;17.90;84.00
20366;DHT22;10341;49.894;8.822;2024-03-08T11:53:11;16.10;88.70
20366;DHT22;10341;49.894;8.822;2024-03-08T11:58:32;17.30;84.60
20366;DHT22;10341;49.894;8.822;2024-03-08T12:03:56;18.90;81.50
20366;DHT22;10341;49.894;8.822;2024-03-08T12:09:19;19.20;80.30
20366;DHT22;10341;49.894;8.822;2024-03-08T12:14:43;17.00;83.50
20366;DHT22;10341;49.894;8.822;2024-03-08T12:25:42;16.80;84.70
20366;DHT22;10341;49.894;8.822;2024-03-08T12:31:02;16.10;86.60
20366;DHT22;10341;49.894;8.822;2024-03-08T12:36:22;16.70;85.60
20366;DHT22;10341;49.894;8.822;2024-03-08T12:41:41;17.70;83.10
20366;DHT22;10341;49.894;8.822;2024-03-08T12:47:00;15.80;85.60
20366;DHT22;10341;49.894;8.822;2024-03-08T12:52:20;14.50;90.60
20366;DHT22;10341;49.894;8.822;2024-03-08T12:57:39;14.90;88.80
20366;DHT22;10341;49.894;8.822;2024-03-08T13:02:59;16.10;89.30
20366;DHT22;10341;49.894;8.822;2024-03-08T13:08:18;16.40;86.60
20366;DHT22;10341;49.894;8.822;2024-03-08T13:13:37;15.60;90.30
20366;DHT22;10341;49.894;8.822;2024-03-08T13:18:58;15.40;90.10
20366;DHT22;10341;49.894;8.822;2024-03-08T13:24:18;15.30;89.20
20366;DHT22;10341;49.894;8.822;2024-03-08T13:29:38;15.00;90.00
20366;DHT22;10341;49.894;8.822;2024-03-08T13:34:57;14.40;90.80
20366;DHT22;10341;49.894;8.822;2024-03-08T13:40:17;14.90;90.80
20366;DHT22;10341;49.894;8.822;2024-03-08T13:45:40;15.60;90.20
20366;DHT22;10341;49.894;8.822;2024-03-08T13:51:01;15.30;90.40
20366;DHT22;10341;49.894;8.822;2024-03-08T13:56:20;14.40;90.60
20366;DHT22;10341;49.894;8.822;2024-03-08T14:01:40;14.30;90.70
20366;DHT22;10341;49.894;8.822;2024-03-08T14:07:00;14.60;90.80
20366;DHT22;10341;49.894;8.822;2024-03-08T14:12:23;15.40;89.30
20366;DHT22;10341;49.894;8.822;2024-03-08T14:17:52;15.20;90.30
20366;DHT22;10341;49.894;8.822;2024-03-08T14:23:12;17.20;85.20
20366;DHT22;10341;49.894;8.822;2024-03-08T14:28:31;15.50;88.80
20366;DHT22;10341;49.894;8.822;2024-03-08T14:33:52;15.10;90.20
20366;DHT22;10341;49.894;8.822;2024-03-08T14:39:11;16.30;88.50
20366;DHT22;10341;49.894;8.822;2024-03-08T14:44:31;15.80;87.70
20366;DHT22;10341;49.894;8.822;2024-03-08T14:49:50;14.10;90.70
20366;DHT22;10341;49.894;8.822;2024-03-08T14:55:10;15.90;88.60
20366;DHT22;10341;49.894;8.822;2024-03-08T15:00:33;16.40;87.60
20366;DHT22;10341;49.894;8.822;2024-03-08T15:05:53;16.90;87.40
20366;DHT22;10341;49.894;8.822;2024-03-08T15:11:13;15.80;86.50
20366;DHT22;10341;49.894;8.822;2024-03-08T15:16:42;15.70;86.10
20366;DHT22;10341;49.894;8.822;2024-03-08T15:22:02;15.00;89.50
20366;DHT22;10341;49.894;8.822;2024-03-08T15:27:22;14.70;90.20
20366;DHT22;10341;49.894;8.822;2024-03-08T15:32:46;14.10;89.80
20366;DHT22;10341;49.894;8.822;2024-03-08T15:38:06;13.40;90.30
20366;DHT22;10341;49.894;8.822;2024-03-08T15:43:26;12.60;91.60
20366;DHT22;10341;49.894;8.822;2024-03-08T15:48:46;12.10;92.50
20366;DHT22;10341;49.894;8.822;2024-03-08T15:54:06;12.00;92.50
20366;DHT22;10341;49.894;8.822;2024-03-08T15:59:26;11.90;93.50
20366;DHT22;10341;49.894;8.822;2024-03-08T16:04:47;11.90;92.70
20366;DHT22;10341;49.894;8.822;2024-03-08T16:10:07;11.80;93.20
20366;DHT22;10341;49.894;8.822;2024-03-08T16:15:29;11.80;93.20
20366;DHT22;10341;49.894;8.822;2024-03-08T16:20:53;11.70;93.40
20366;DHT22;10341;49.894;8.822;2024-03-08T16:26:12;11.60;93.60
20366;DHT22;10341;49.894;8.822;2024-03-08T16:31:32;11.60;93.70
20366;DHT22;10341;49.894;8.822;2024-03-08T16:36:52;11.40;94.40
20366;DHT22;10341;49.894;8.822;2024-03-08T16:42:11;11.30;94.90
20366;DHT22;10341;49.894;8.822;2024-03-08T16:47:31;11.10;94.80
20366;DHT22;10341;49.894;8.822;2024-03-08T16:52:50;11.00;95.20
20366;DHT22;10341;49.894;8.822;2024-03-08T16:58:12;10.90;95.70
20366;DHT22;10341;49.894;8.822;2024-03-08T17:03:35;10.80;94.80
20366;DHT22;10341;49.894;8.822;2024-03-08T17:08:56;10.70;95.10
20366;DHT22;10341;49.894;8.822;2024-03-08T17:14:16;10.50;95.40
20366;DHT22;10341;49.894;8.822;2024-03-08T17:19:37;10.40;95.30
20366;DHT22;10341;49.894;8.822;2024-03-08T17:24:57;10.10;95.30
20366;DHT22;10341;49.894;8.822;2024-03-08T17:30:19;9.90;96.00
20366;DHT22;10341;49.894;8.822;2024-03-08T17:35:41;9.50;96.50
20366;DHT22;10341;49.894;8.822;2024-03-08T17:41:01;9.20;97.80
20366;DHT22;10341;49.894;8.822;2024-03-08T17:46:20;8.90;98.80
20366;DHT22;10341;49.894;8.822;2024-03-08T17:51:41;8.70;99.70
20366;DHT22;10341;49.894;8.822;2024-03-08T17:57:00;8.50;99.90
20366;DHT22;10341;49.894;8.822;2024-03-08T18:02:20;8.40;99.90
20366;DHT22;10341;49.894;8.822;2024-03-08T18:07:41;8.20;99.90
20366;DHT22;10341;49.894;8.822;2024-03-08T18:13:04;8.10;99.90
20366;DHT22;10341;49.894;8.822;2024-03-08T18:18:42;7.90;99.90
20366;DHT22;10341;49.894;8.822;2024-03-08T18:24:06;7.80;99.90
20366;DHT22;10341;49.894;8.822;2024-03-08T18:29:25;7.70;99.90
20366;DHT22;10341;49.894;8.822;2024-03-08T18:34:44;7.50;99.90
20366;DHT22;10341;49.894;8.822;2024-03-08T18:40:04;7.30;99.90
20366;DHT22;10341;49.894;8.822;2024-03-08T18:45:24;7.10;99.90
20366;DHT22;10341;49.894;8.822;2024-03-08T18:50:44;7.00;99.90
20366;DHT22;10341;49.894;8.822;2024-03-08T18:56:04;6.90;99.90
20366;DHT22;10341;49.894;8.822;2024-03-08T19:01:26;7.00;99.90
20366;DHT22;10341;49.894;8.822;2024-03-08T19:06:48;7.00;99.90
20366;DHT22;10341;49.894;8.822;2024-03-08T19:12:10;7.00;99.90
20366;DHT22;10341;49.894;8.822;2024-03-08T19:17:32;7.10;99.90
20366;DHT22;10341;49.894;8.822;2024-03-08T19:22:54;7.00;99.90
20366;DHT22;10341;49.894;8.822;2024-03-08T19:28:13;6.90;99.90
20366;DHT22;10341;49.894;8.822;2024-03-08T19:33:35;6.80;99.90
20366;DHT22;10341;49.894;8.822;2024-03-08T19:38:55;6.90;99.90
20366;DHT22;10341;49.894;8.822;2024-03-08T19:44:14;7.00;99.90
20366;DHT22;10341;49.894;8.822;2024-03-08T19:49:34;7.20;99.90
20366;DHT22;10341;49.894;8.822;2024-03-08T19:54:55;7.00;99.90
20366;DHT22;10341;49.894;8.822;2024-03-08T20:00:19;6.90;99.90
20366;DHT22;10341;49.894;8.822;2024-03-08T20:05:48;6.60;99.90
20366;DHT22;10341;49.894;8.822;2024-03-08T20:11:07;6.40;99.90
20366;DHT22;10341;49.894;8.822;2024-03-08T20:16:28;6.20;99.90
20366;DHT22;10341;49.894;8.822;2024-03-08T20:21:48;6.00;99.90
20366;DHT22;10341;49.894;8.822;2024-03-08T20:27:07;5.80;99.90
20366;DHT22;10341;49.894;8.822;2024-03-08T20:32:27;5.70;99.90
20366;DHT22;10341;49.894;8.822;2024-03-08T20:37:47;5.70;99.90
20366;DHT22;10341;49.894;8.822;2024-03-08T20:43:08;5.60;99.90
20366;DHT22;10341;49.894;8.822;2024-03-08T20:48:33;5.60;99.90
20366;DHT22;10341;49.894;8.822;2024-03-08T20:53:58;5.50;99.90
20366;DHT22;10341;49.894;8.822;2024-03-08T20:59:18;5.60;99.90
20366;DHT22;10341;49.894;8.822;2024-03-08T21:04:39;6.10;99.90
20366;DHT22;10341;49.894;8.822;2024-03-08T21:10:01;6.00;99.90
20366;DHT22;10341;49.894;8.822;2024-03-08T21:15:22;6.10;99.90
20366;DHT22;10341;49.894;8.822;2024-03-08T21:20:42;6.20;99.90
20366;DHT22;10341;49.894;8.822;2024-03-08T21:26:01;6.10;99.90
20366;DHT22;10341;49.894;8.822;2024-03-08T21:31:21;6.10;99.90
20366;DHT22;10341;49.894;8.822;2024-03-08T21:36:42;6.10;99.90
20366;DHT22;10341;49.894;8.822;2024-03-08T21:42:03;6.00;99.90
20366;DHT22;10341;49.894;8.822;2024-03-08T21:47:23;6.00;99.90
20366;DHT22;10341;49.894;8.822;2024-03-08T21:52:43;6.30;99.90
20366;DHT22;10341;49.894;8.822;2024-03-08T21:58:03;6.30;99.90
20366;DHT22;10341;49.894;8.822;2024-03-08T22:03:24;6.30;99.90
20366;DHT22;10341;49.894;8.822;2024-03-08T22:08:46;6.20;99.90
20366;DHT22;10341;49.894;8.822;2024-03-08T22:14:06;6.30;99.90
20366;DHT22;10341;49.894;8.822;2024-03-08T22:19:27;6.20;99.90
20366;DHT22;10341;49.894;8.822;2024-03-08T22:24:47;6.50;99.90
20366;DHT22;10341;49.894;8.822;2024-03-08T22:30:14;6.20;99.90
20366;DHT22;10341;49.894;8.822;2024-03-08T22:35:36;6.20;99.90
20366;DHT22;10341;49.894;8.822;2024-03-08T22:40:56;6.20;99.90
20366;DHT22;10341;49.894;8.822;2024-03-08T22:46:17;6.10;99.90
20366;DHT22;10341;49.894;8.822;2024-03-08T22:51:37;6.00;99.90
20366;DHT22;10341;49.894;8.822;2024-03-08T22:56:56;6.10;99.90
20366;DHT22;10341;49.894;8.822;2024-03-08T23:02:16;6.10;99.90
20366;DHT22;10341;49.894;8.822;2024-03-08T23:07:38;6.20;99.90
20366;DHT22;10341;49.894;8.822;2024-03-08T23:12:58;6.00;99.90
20366;DHT22;10341;49.894;8.822;2024-03-08T23:18:17;5.90;99.90
20366;DHT22;10341;49.894;8.822;2024-03-08T23:23:38;5.70;99.90
20366;DHT22;10341;49.894;8.822;2024-03-08T23:28:58;5.70;99.90
20366;DHT22;10341;49.894;8.822;2024-03-08T23:34:18;5.70;99.90
20366;DHT22;10341;49.894;8.822;2024-03-08T23:39:37;5.80;99.90
20366;DHT22;10341;49.894;8.822;2024-03-08T23:44:57;5.60;99.90
20366;DHT22;10341;49.894;8.822;2024-03-08T23:50:17;5.60;99.90
20366;DHT22;10341;49.894;8.822;2024-03-08T23:55:41;5.60;99.90
